This is the latest recevied weather packets stored in our database for station/object WD4HMR. If no packets are shown the sender has not sent any weather packets the latest 10 day(s).
| Time | Temp. | Humidity | Pressure | Rain* | Wind** | Luminosity | Snow |
|---|---|---|---|---|---|---|---|
| 1777904404 | 19.44° C | 54% | 1018.6 hPa | 0 mm | - | 547 W/m² | - |
| 1777904104 | 19.44° C | 54% | 1018.5 hPa | 0 mm | - | 526 W/m² | - |
| 1777902605 | 18.33° C | 57% | 1018.7 hPa | 0 mm | - | 421 W/m² | - |
| 1777901704 | 17.78° C | 58% | 1018.7 hPa | 0 mm | - | 361 W/m² | - |
| 1777901104 | 17.22° C | 58% | 1018.7 hPa | 0 mm | - | 322 W/m² | - |
| 1777899304 | 17.22° C | 56% | 1018.7 hPa | 0 mm | - | 214 W/m² | - |
| 1777899003 | 16.67° C | 55% | 1018.6 hPa | 0 mm | - | 197 W/m² | - |
| 1777896904 | 15.56° C | 59% | 1018.4 hPa | 0 mm | - | 89 W/m² | - |
| 1777896304 | 15° C | 60% | 1018.3 hPa | 0 mm | - | 62 W/m² | - |
| 1777895704 | 13.89° C | 63% | 1018.2 hPa | 0 mm | - | 36 W/m² | - |
| 1777894204 | 12.78° C | 69% | 1018 hPa | 0 mm | - | 36 W/m² | - |
| 1777892704 | 11.11° C | 76% | 1017.8 hPa | 0 mm | - | 9 W/m² | - |
| 1777892105 | 11.11° C | 76% | 1017.8 hPa | 0 mm | - | 3 W/m² | - |
| 1777891504 | 11.11° C | 75% | 1017.9 hPa | 0 mm | - | 0 W/m² | - |
| 1777889704 | 11.11° C | 76% | 1018 hPa | 0 mm | - | 0 W/m² | - |
| 1777888204 | 11.67° C | 72% | 1017.9 hPa | 0 mm | - | 0 W/m² | - |
| 1777887304 | 12.78° C | 70% | 1017.9 hPa | 0 mm | - | 0 W/m² | - |
| 1777886703 | 13.33° C | 66% | 1017.9 hPa | 0 mm | - | 0 W/m² | - |
| 1777885803 | 13.33° C | 64% | 1017.8 hPa | 0 mm | - | 0 W/m² | - |
| 1777885204 | 13.33° C | 64% | 1017.8 hPa | 0 mm | - | 0 W/m² | - |
| 1777884904 | 12.78° C | 64% | 1017.8 hPa | 0 mm | - | 0 W/m² | - |
| 1777883104 | 10.56° C | 80% | 1017.6 hPa | 0 mm | - | 0 W/m² | - |
| 1777882804 | 10.56° C | 80% | 1017.6 hPa | 0 mm | - | 0 W/m² | - |
| 1777881903 | 10.56° C | 80% | 1017.8 hPa | 0 mm | - | 0 W/m² | - |
| 1777881004 | 10.56° C | 80% | 1017.9 hPa | 0 mm | - | 0 W/m² | - |
* Rain latest hour (hover to see other rain measurements)
** Current wind speed in m/s (hover to see current wind gust speed)